createdAt,value
2023-04-02T00:00:38.146Z,67.86
2023-04-02T00:11:10.932Z,68.00
2023-04-02T00:21:35.507Z,67.88
2023-04-02T00:31:59.407Z,68.14
2023-04-02T00:42:20.934Z,68.40
2023-04-02T00:52:43.842Z,68.18
2023-04-02T01:03:17.455Z,68.53
2023-04-02T01:13:42.791Z,68.63
2023-04-02T01:24:09.348Z,68.19
2023-04-02T01:34:31.134Z,67.87
2023-04-02T01:44:54.991Z,68.00
2023-04-02T01:55:22.398Z,68.48
2023-04-02T02:05:44.200Z,68.20
2023-04-02T02:16:07.556Z,68.66
2023-04-02T02:26:30.124Z,68.70
2023-04-02T02:36:57.623Z,68.40
2023-04-02T02:47:21.892Z,68.52
2023-04-02T02:57:54.792Z,68.27
2023-04-02T03:08:29.179Z,68.09
2023-04-02T03:18:54.534Z,67.79
2023-04-02T03:29:27.503Z,67.83
2023-04-02T03:40:01.709Z,68.29
2023-04-02T03:50:52.135Z,68.00
2023-04-02T04:01:28.302Z,68.56
2023-04-02T04:11:52.690Z,68.66
2023-04-02T04:22:18.063Z,68.76
2023-04-02T04:32:50.605Z,68.12
2023-04-02T04:43:49.863Z,68.80
2023-04-02T04:54:14.032Z,68.79
2023-04-02T05:04:42.916Z,68.48
2023-04-02T05:15:16.681Z,68.63
2023-04-02T05:26:10.757Z,68.46
2023-04-02T05:36:32.704Z,68.63
2023-04-02T05:47:02.507Z,68.85
2023-04-02T05:57:44.584Z,68.37
2023-04-02T06:08:26.850Z,68.84
2023-04-02T06:18:48.405Z,69.45
2023-04-02T06:29:12.543Z,69.24
2023-04-02T06:39:35.035Z,69.01
2023-04-02T06:50:06.605Z,69.18
2023-04-02T07:00:39.002Z,68.86
2023-04-02T07:11:02.217Z,69.07
2023-04-02T07:21:23.688Z,68.79
2023-04-02T07:31:45.410Z,68.98
2023-04-02T07:42:08.246Z,68.63
2023-04-02T07:52:29.840Z,68.56
2023-04-02T08:02:51.854Z,68.06
2023-04-02T08:13:13.650Z,67.83
2023-04-02T08:23:36.240Z,68.33
2023-04-02T08:33:57.545Z,68.23
2023-04-02T08:44:43.667Z,68.42
2023-04-02T08:55:23.587Z,67.64
2023-04-02T09:05:47.559Z,67.37
2023-04-02T09:16:13.454Z,67.41
2023-04-02T09:26:34.758Z,66.96
2023-04-02T09:36:56.944Z,67.18
2023-04-02T09:47:27.560Z,66.93
2023-04-02T09:57:49.948Z,67.23
2023-04-02T10:08:28.304Z,66.95
2023-04-02T10:18:59.029Z,66.88
2023-04-02T10:29:23.441Z,66.56
2023-04-02T10:39:49.079Z,67.03
2023-04-02T10:50:31.640Z,66.87
2023-04-02T11:01:02.274Z,66.90
2023-04-02T11:11:30.713Z,66.88
2023-04-02T11:22:22.266Z,66.39
2023-04-02T11:32:49.969Z,66.47
2023-04-02T11:43:33.465Z,66.42
2023-04-02T11:53:58.607Z,65.74
2023-04-02T12:04:37.991Z,65.52
2023-04-02T12:15:00.154Z,65.22
2023-04-02T12:25:22.077Z,65.05
2023-04-02T12:35:47.047Z,64.68
2023-04-02T12:46:09.169Z,64.43
2023-04-02T12:56:30.307Z,64.65
2023-04-02T13:06:55.106Z,64.33
2023-04-02T13:17:39.045Z,64.46
2023-04-02T13:28:00.592Z,64.22
2023-04-02T13:38:22.867Z,64.10
2023-04-02T13:48:44.369Z,64.05
2023-04-02T13:59:06.994Z,63.88
2023-04-02T14:09:48.112Z,63.81
2023-04-02T14:20:17.548Z,63.67
2023-04-02T14:31:07.495Z,63.21
2023-04-02T14:41:42.993Z,63.78
2023-04-02T14:52:05.811Z,64.64
2023-04-02T15:03:04.458Z,64.13
2023-04-02T15:13:37.317Z,63.83
2023-04-02T15:24:23.032Z,64.38
2023-04-02T15:34:47.220Z,63.81
2023-04-02T15:45:08.921Z,63.50
2023-04-02T15:55:45.736Z,63.55
2023-04-02T16:06:23.756Z,63.38
2023-04-02T16:16:47.246Z,63.87
2023-04-02T16:27:26.594Z,63.78
2023-04-02T16:38:16.176Z,63.52
2023-04-02T16:48:46.708Z,63.36
2023-04-02T16:59:27.750Z,63.38
2023-04-02T17:09:53.918Z,63.35
2023-04-02T17:20:21.788Z,63.61
2023-04-02T17:30:47.377Z,63.34
2023-04-02T17:41:47.011Z,63.27
2023-04-02T17:52:37.429Z,63.26
2023-04-02T18:03:35.447Z,63.60
2023-04-02T18:14:00.997Z,63.32
2023-04-02T18:25:14.841Z,63.42
2023-04-02T18:36:05.323Z,63.72
2023-04-02T18:46:50.677Z,63.27
2023-04-02T18:57:18.264Z,63.63
2023-04-02T19:07:41.877Z,62.83
2023-04-02T19:18:06.262Z,63.00
2023-04-02T19:28:32.969Z,63.31
2023-04-02T19:39:04.239Z,63.43
2023-04-02T19:49:28.985Z,63.59
2023-04-02T19:59:50.186Z,63.04
2023-04-02T20:10:11.321Z,63.30
2023-04-02T20:20:32.543Z,63.20
2023-04-02T20:30:54.639Z,63.96
2023-04-02T20:41:16.454Z,64.14
2023-04-02T20:51:37.544Z,63.85
2023-04-02T21:01:58.642Z,63.82
2023-04-02T21:12:20.046Z,64.19
2023-04-02T21:22:41.417Z,64.46
2023-04-02T21:33:02.567Z,64.24
2023-04-02T21:43:24.017Z,64.69
2023-04-02T21:53:45.776Z,64.10
2023-04-02T22:04:08.748Z,64.09
2023-04-02T22:14:31.175Z,64.22
2023-04-02T22:24:52.362Z,64.17
2023-04-02T22:35:13.684Z,64.59
2023-04-02T22:45:35.775Z,64.52
2023-04-02T22:56:22.870Z,64.50
2023-04-02T23:06:44.578Z,63.91
2023-04-02T23:17:05.615Z,64.28
2023-04-02T23:27:26.962Z,64.47
2023-04-02T23:37:51.213Z,64.28
2023-04-02T23:48:12.584Z,64.35
2023-04-02T23:58:34.133Z,65.39
